Time;durP1;ratioP1;P1;durP2;ratioP2;P2;SDS_P1;SDS_P2;PMS_P1;PMS_P2;Temp;Humidity;BMP_temperature;BMP_pressure;BME280_temperature;BME280_humidity;BME280_pressure;Samples;Min_cycle;Max_cycle;Signal;HPM_P1;HPM_P2
2023/02/20 00:02:29;;;;;;;7.03;4.65;;;6.30;99.90;;;;;;12368801;28;20050;-80
2023/02/20 00:08:31;;;;;;;7.43;5.03;;;6.20;99.90;;;;;;12374819;28;20510;-81
2023/02/20 00:14:33;;;;;;;9.40;4.93;;;6.20;99.90;;;;;;12383201;28;20050;-81
2023/02/20 00:20:36;;;;;;;6.57;4.78;;;6.20;99.90;;;;;;12384158;28;20047;-80
2023/02/20 00:26:38;;;;;;;7.78;5.35;;;6.20;99.90;;;;;;12363308;28;20055;-80
2023/02/20 00:32:39;;;;;;;6.50;4.75;;;6.10;99.90;;;;;;12376366;28;20054;-80
2023/02/20 00:38:43;;;;;;;8.57;5.72;;;6.10;99.90;;;;;;12373096;28;20499;-80
2023/02/20 00:44:45;;;;;;;9.13;6.43;;;6.10;99.90;;;;;;12374825;28;20042;-81
2023/02/20 00:50:46;;;;;;;10.23;7.25;;;6.00;99.90;;;;;;12375590;28;20174;-81
2023/02/20 00:56:48;;;;;;;10.15;7.13;;;6.00;99.90;;;;;;12358632;28;20137;-81
2023/02/20 01:02:50;;;;;;;11.00;7.80;;;6.00;99.90;;;;;;12361583;28;20077;-81
2023/02/20 01:08:52;;;;;;;11.35;8.00;;;5.90;99.90;;;;;;12379453;28;20035;-81
2023/02/20 01:14:54;;;;;;;11.40;8.45;;;5.90;99.90;;;;;;12365311;28;20039;-80
2023/02/20 01:20:56;;;;;;;13.13;9.27;;;5.90;99.90;;;;;;12366704;28;20073;-81
2023/02/20 01:26:58;;;;;;;13.18;9.52;;;5.80;99.90;;;;;;12381216;28;20043;-80
2023/02/20 01:33:00;;;;;;;13.32;9.50;;;5.80;99.90;;;;;;12366619;28;20165;-81
2023/02/20 01:39:01;;;;;;;13.20;9.07;;;5.70;99.90;;;;;;12371267;28;20724;-81
2023/02/20 01:45:21;;;;;;;12.52;8.88;;;5.80;99.90;;;;;;12412553;28;20049;-81
2023/02/20 01:51:23;;;;;;;13.10;8.95;;;5.80;99.90;;;;;;12427491;28;20111;-81
2023/02/20 01:57:28;;;;;;;13.32;8.68;;;5.80;99.90;;;;;;12394510;28;20132;-81
2023/02/20 02:03:34;;;;;;;12.57;8.70;;;5.80;99.90;;;;;;12375928;28;20078;-81
2023/02/20 02:10:05;;;;;;;13.85;8.73;;;5.70;99.90;;;;;;12370737;28;20495;-82
2023/02/20 02:16:25;;;;;;;12.18;8.65;;;5.70;99.90;;;;;;12414331;28;20104;-81
2023/02/20 02:23:10;;;;;;;14.63;8.25;;;5.70;99.90;;;;;;12402273;28;20479;-82
2023/02/20 02:29:46;;;;;;;13.05;8.68;;;5.70;99.90;;;;;;12389773;28;20058;-81
2023/02/20 02:36:12;;;;;;;13.55;8.57;;;5.70;99.90;;;;;;12398520;28;20046;-81
2023/02/20 02:42:33;;;;;;;14.88;9.30;;;5.70;99.90;;;;;;12381194;28;20077;-81
2023/02/20 02:48:36;;;;;;;18.73;10.50;;;5.80;99.90;;;;;;12383364;28;20042;-82
2023/02/20 02:54:39;;;;;;;15.68;11.23;;;5.80;99.90;;;;;;12407043;28;20564;-81
2023/02/20 03:00:50;;;;;;;18.33;11.30;;;5.80;99.90;;;;;;12417149;28;20054;-82
2023/02/20 03:06:57;;;;;;;19.13;12.40;;;5.90;99.90;;;;;;12412519;28;20046;-83
2023/02/20 03:13:04;;;;;;;21.58;12.40;;;5.90;99.90;;;;;;12424318;28;20125;-82
2023/02/20 03:19:12;;;;;;;22.42;13.30;;;5.90;99.90;;;;;;12414705;28;20111;-82
2023/02/20 03:25:17;;;;;;;23.38;13.25;;;5.90;99.90;;;;;;12416684;28;20675;-83
2023/02/20 03:31:49;;;;;;;20.63;12.55;;;6.10;99.90;;;;;;12418785;28;20054;-83
2023/02/20 03:44:16;;;;;;;17.05;11.57;;;6.10;99.90;;;;;;12437091;28;20533;-82
2023/02/20 03:56:51;;;;;;;18.98;11.88;;;6.10;99.90;;;;;;12443509;28;20348;-83
2023/02/20 04:02:59;;;;;;;19.88;10.93;;;6.10;99.90;;;;;;12459140;28;20037;-84
2023/02/20 04:09:11;;;;;;;19.92;10.82;;;6.10;99.90;;;;;;12474233;28;20046;-83
2023/02/20 04:15:14;;;;;;;20.77;11.07;;;6.20;99.90;;;;;;12490621;28;20045;-83
2023/02/20 04:21:19;;;;;;;21.73;10.82;;;6.20;99.90;;;;;;12462868;28;20046;-84
2023/02/20 04:27:21;;;;;;;22.27;11.10;;;6.30;99.90;;;;;;12424395;28;20149;-82
2023/02/20 04:33:23;;;;;;;17.60;9.77;;;6.30;99.90;;;;;;12437805;28;20125;-83
2023/02/20 04:39:25;;;;;;;20.05;9.68;;;6.30;99.90;;;;;;12410227;28;20042;-82
2023/02/20 04:45:27;;;;;;;19.35;8.73;;;6.40;99.90;;;;;;12425338;28;20045;-82
2023/02/20 04:51:29;;;;;;;22.70;10.63;;;6.30;99.90;;;;;;12419850;28;20057;-83
2023/02/20 04:57:31;;;;;;;20.50;9.88;;;6.40;99.90;;;;;;12409957;28;20061;-84
2023/02/20 05:03:32;;;;;;;19.92;9.52;;;6.30;99.90;;;;;;12423935;28;20418;-83
2023/02/20 05:09:34;;;;;;;18.20;8.88;;;6.40;99.90;;;;;;12410790;28;20046;-83
2023/02/20 05:15:36;;;;;;;18.45;8.75;;;6.40;99.90;;;;;;12380346;28;20106;-82
2023/02/20 05:28:02;;;;;;;20.63;9.35;;;6.30;99.90;;;;;;12369813;28;20486;-83
2023/02/20 05:34:04;;;;;;;19.23;8.00;;;6.20;99.90;;;;;;12362638;28;20089;-83
2023/02/20 05:40:06;;;;;;;18.92;10.77;;;6.20;99.90;;;;;;12367288;28;20233;-83
2023/02/20 05:46:08;;;;;;;15.40;9.02;;;6.20;99.90;;;;;;12314068;28;20055;-83
2023/02/20 05:52:11;;;;;;;17.85;9.55;;;6.20;99.90;;;;;;12370046;28;20118;-82
2023/02/20 05:58:14;;;;;;;19.80;9.77;;;6.20;99.90;;;;;;12355674;28;20057;-83
2023/02/20 06:04:15;;;;;;;16.65;9.52;;;6.20;99.90;;;;;;12366997;28;20100;-83
2023/02/20 06:10:19;;;;;;;23.45;10.55;;;6.20;99.90;;;;;;12354364;28;20133;-82
2023/02/20 06:16:23;;;;;;;22.95;10.70;;;6.20;99.90;;;;;;12361232;28;20483;-82
2023/02/20 06:22:24;;;;;;;21.50;12.37;;;6.20;99.90;;;;;;12376178;28;20054;-82
2023/02/20 06:28:26;;;;;;;24.05;13.27;;;6.20;99.90;;;;;;12377712;28;20043;-82
2023/02/20 06:34:32;;;;;;;23.08;13.55;;;6.10;99.90;;;;;;12354552;28;20045;-82
2023/02/20 06:40:33;;;;;;;24.67;13.60;;;6.10;99.90;;;;;;12378362;28;20050;-83
2023/02/20 06:46:35;;;;;;;28.98;18.17;;;6.20;99.90;;;;;;12354000;28;20047;-81
2023/02/20 06:52:38;;;;;;;32.10;19.15;;;6.20;99.90;;;;;;12357812;28;20081;-82
2023/02/20 06:58:40;;;;;;;31.17;19.83;;;6.20;99.90;;;;;;12338210;28;20063;-83
2023/02/20 07:04:42;;;;;;;34.35;20.52;;;6.10;99.90;;;;;;12287358;28;20077;-82
2023/02/20 07:10:43;;;;;;;37.67;22.42;;;6.10;99.90;;;;;;12279599;28;20492;-83
2023/02/20 07:16:45;;;;;;;34.30;21.58;;;6.10;99.90;;;;;;12288053;29;20051;-82
2023/02/20 07:22:52;;;;;;;33.50;22.25;;;6.10;99.90;;;;;;12272298;28;20055;-81
2023/02/20 07:28:57;;;;;;;40.42;22.55;;;6.20;99.90;;;;;;12286165;29;20044;-83
2023/02/20 07:34:59;;;;;;;34.17;21.73;;;6.20;99.90;;;;;;12263113;28;20036;-82
2023/02/20 07:41:08;;;;;;;35.97;21.63;;;6.20;99.90;;;;;;12277065;29;20055;-83
2023/02/20 07:47:10;;;;;;;33.20;19.95;;;6.20;99.90;;;;;;12285775;28;20748;-83
2023/02/20 07:53:17;;;;;;;36.17;21.60;;;6.20;99.90;;;;;;12296861;28;20098;-83
2023/02/20 07:59:19;;;;;;;36.15;23.02;;;6.20;99.90;;;;;;12268365;29;20086;-83
2023/02/20 08:05:21;;;;;;;33.67;19.13;;;6.10;99.90;;;;;;12287950;28;20089;-83
2023/02/20 08:11:23;;;;;;;27.67;16.40;;;6.30;99.90;;;;;;12279988;28;20370;-82
2023/02/20 08:17:25;;;;;;;29.55;17.40;;;6.20;99.90;;;;;;12308097;28;20105;-83
2023/02/20 08:23:45;;;;;;;27.00;17.23;;;6.30;99.90;;;;;;12285279;28;20036;-82
2023/02/20 08:29:47;;;;;;;25.35;13.60;;;6.20;99.90;;;;;;12278694;29;20109;-81
2023/02/20 08:35:52;;;;;;;23.90;14.52;;;6.30;99.90;;;;;;12323938;28;20130;-83
2023/02/20 08:41:54;;;;;;;24.73;13.57;;;6.30;99.90;;;;;;12330018;28;20125;-83
2023/02/20 08:48:01;;;;;;;23.05;14.32;;;6.30;99.90;;;;;;12331700;28;20047;-81
2023/02/20 08:54:03;;;;;;;22.73;14.63;;;6.30;99.90;;;;;;12341329;28;20054;-83
2023/02/20 09:00:05;;;;;;;28.48;16.27;;;6.30;99.90;;;;;;12397872;28;20046;-81
2023/02/20 09:06:07;;;;;;;28.42;16.08;;;6.40;99.90;;;;;;12377287;28;20054;-81
2023/02/20 09:12:09;;;;;;;27.55;16.45;;;6.40;99.90;;;;;;12409404;28;20047;-82
2023/02/20 09:18:13;;;;;;;26.70;15.18;;;6.40;99.90;;;;;;12398190;28;20495;-81
2023/02/20 09:24:15;;;;;;;30.73;17.00;;;6.40;99.90;;;;;;12411901;28;20042;-81
2023/02/20 09:30:19;;;;;;;31.75;18.92;;;6.50;99.90;;;;;;12422565;28;20054;-82
2023/02/20 09:36:21;;;;;;;31.98;18.35;;;6.50;99.90;;;;;;12395333;28;20058;-83
2023/02/20 09:42:26;;;;;;;29.35;17.15;;;6.60;99.90;;;;;;12423801;28;20057;-82
2023/02/20 09:48:42;;;;;;;31.33;18.35;;;6.60;99.90;;;;;;12423937;28;20120;-81
2023/02/20 09:55:06;;;;;;;31.85;16.88;;;6.60;99.90;;;;;;12421777;28;20482;-81
2023/02/20 10:01:10;;;;;;;33.03;17.53;;;6.60;99.90;;;;;;12410117;28;20050;-83
2023/02/20 10:07:28;;;;;;;34.53;17.17;;;6.70;99.90;;;;;;12407231;28;20494;-81
2023/02/20 10:13:41;;;;;;;29.10;17.92;;;6.70;99.90;;;;;;12430711;28;20046;-83
2023/02/20 10:20:02;;;;;;;32.55;19.05;;;6.60;99.90;;;;;;12418886;28;20096;-82
2023/02/20 10:26:08;;;;;;;31.98;19.65;;;6.60;99.90;;;;;;12357398;28;20129;-82
2023/02/20 10:32:23;;;;;;;32.75;19.80;;;6.70;99.90;;;;;;12379624;28;20051;-82
2023/02/20 10:38:29;;;;;;;34.47;20.10;;;6.70;99.90;;;;;;12381040;28;20050;-83
2023/02/20 10:44:53;;;;;;;34.72;20.67;;;6.70;99.90;;;;;;12389847;28;20185;-83
2023/02/20 10:51:03;;;;;;;38.10;21.47;;;6.80;99.90;;;;;;12418551;28;20144;-82
2023/02/20 10:57:19;;;;;;;34.03;16.92;;;6.80;99.90;;;;;;12407958;28;20121;-82
2023/02/20 11:03:36;;;;;;;35.72;21.58;;;6.80;99.90;;;;;;12419441;28;20514;-82
2023/02/20 11:09:40;;;;;;;37.30;18.60;;;6.90;99.90;;;;;;12413652;28;20049;-82
2023/02/20 11:15:43;;;;;;;34.97;18.37;;;6.90;99.90;;;;;;12410313;28;20045;-82
2023/02/20 11:21:48;;;;;;;42.80;21.35;;;7.00;99.90;;;;;;12421594;28;20422;-82
2023/02/20 11:27:54;;;;;;;34.00;17.75;;;7.00;99.90;;;;;;12404379;28;20506;-82
2023/02/20 11:33:56;;;;;;;37.20;18.77;;;7.10;99.90;;;;;;12403142;28;20042;-82
2023/02/20 11:39:59;;;;;;;41.90;19.25;;;7.20;99.90;;;;;;12422763;28;20049;-82
2023/02/20 11:46:20;;;;;;;37.10;18.42;;;7.30;99.90;;;;;;12415496;28;20042;-83
2023/02/20 11:52:23;;;;;;;41.38;18.17;;;7.30;99.90;;;;;;12415767;28;20512;-82
2023/02/20 11:58:29;;;;;;;33.75;18.67;;;7.30;99.90;;;;;;12364460;28;20532;-82
2023/02/20 12:04:31;;;;;;;32.88;17.02;;;7.40;99.90;;;;;;12374316;28;20054;-82
2023/02/20 12:10:43;;;;;;;30.25;15.55;;;7.40;99.90;;;;;;12371926;28;20054;-81
2023/02/20 12:16:48;;;;;;;33.28;16.13;;;7.40;99.90;;;;;;12400987;28;20196;-82
2023/02/20 12:23:17;;;;;;;28.17;16.40;;;7.40;99.90;;;;;;12365840;28;20411;-82
2023/02/20 12:29:50;;;;;;;27.58;14.60;;;7.60;99.90;;;;;;12372973;28;21212;-82
2023/02/20 12:35:58;;;;;;;29.98;16.05;;;7.60;99.90;;;;;;12370953;28;20043;-82
2023/02/20 12:42:25;;;;;;;30.65;14.55;;;7.60;99.90;;;;;;12385600;28;20096;-83
2023/02/20 12:49:01;;;;;;;25.05;13.93;;;7.70;99.90;;;;;;12359488;28;20138;-83
2023/02/20 12:55:19;;;;;;;25.65;13.63;;;7.70;99.90;;;;;;12376262;28;20056;-83
2023/02/20 13:01:22;;;;;;;27.27;13.88;;;7.70;99.90;;;;;;12397928;28;20504;-82
2023/02/20 13:07:50;;;;;;;28.00;13.48;;;7.80;99.90;;;;;;12405932;28;20046;-83
2023/02/20 13:14:17;;;;;;;23.95;13.02;;;7.70;99.90;;;;;;12393723;28;20391;-83
2023/02/20 13:20:25;;;;;;;24.83;13.00;;;7.70;99.90;;;;;;12410823;28;20042;-83
2023/02/20 13:26:33;;;;;;;28.10;12.05;;;7.70;99.90;;;;;;12432562;28;20069;-83
2023/02/20 13:32:35;;;;;;;19.55;11.23;;;7.70;99.90;;;;;;12439326;28;20136;-84
2023/02/20 13:38:37;;;;;;;24.63;12.10;;;7.80;99.90;;;;;;12416550;28;20046;-83
2023/02/20 13:44:45;;;;;;;26.25;11.68;;;7.90;99.90;;;;;;12416205;28;20052;-83
2023/02/20 13:51:13;;;;;;;21.17;11.75;;;7.80;99.90;;;;;;12423692;28;20053;-82
2023/02/20 13:57:17;;;;;;;21.60;11.88;;;7.80;99.90;;;;;;12403322;28;20066;-82
2023/02/20 14:03:24;;;;;;;20.63;11.27;;;7.80;99.90;;;;;;12407018;28;20529;-83
2023/02/20 14:09:30;;;;;;;19.85;11.70;;;7.80;99.90;;;;;;12411095;28;20099;-83
2023/02/20 14:15:43;;;;;;;21.30;11.30;;;7.80;99.90;;;;;;12415201;28;20038;-84
2023/02/20 14:21:45;;;;;;;27.63;12.23;;;7.80;99.90;;;;;;12400748;28;20042;-83
2023/02/20 14:27:47;;;;;;;22.20;11.48;;;7.80;99.90;;;;;;12405919;28;20107;-82
2023/02/20 14:34:10;;;;;;;22.02;12.00;;;7.80;99.90;;;;;;12392975;28;20422;-83
2023/02/20 14:40:26;;;;;;;24.63;12.35;;;7.90;99.90;;;;;;12388408;28;20355;-82
2023/02/20 14:46:34;;;;;;;23.17;11.85;;;7.80;99.90;;;;;;12396027;28;20561;-82
2023/02/20 14:52:37;;;;;;;24.02;11.60;;;7.70;99.90;;;;;;12397076;28;20103;-82
2023/02/20 14:58:38;;;;;;;20.40;11.15;;;7.70;99.90;;;;;;12377977;28;20046;-83
2023/02/20 15:04:49;;;;;;;23.40;10.70;;;7.80;99.90;;;;;;12403831;28;20345;-82
2023/02/20 15:10:55;;;;;;;19.13;10.10;;;7.70;99.90;;;;;;12376004;28;20045;-83
2023/02/20 15:17:28;;;;;;;17.35;9.93;;;7.70;99.90;;;;;;12382858;28;20385;-83
2023/02/20 15:23:32;;;;;;;17.15;9.60;;;7.70;99.90;;;;;;12379581;28;20096;-82
2023/02/20 15:29:35;;;;;;;17.63;10.23;;;7.80;99.90;;;;;;12395494;28;20131;-82
2023/02/20 15:35:36;;;;;;;18.85;9.88;;;7.70;99.90;;;;;;12403204;28;20042;-83
2023/02/20 15:41:40;;;;;;;17.60;10.48;;;7.70;99.90;;;;;;12388366;28;20050;-83
2023/02/20 15:47:42;;;;;;;19.58;9.90;;;7.70;99.90;;;;;;12395074;28;20881;-83
2023/02/20 15:53:45;;;;;;;18.75;10.07;;;7.70;99.90;;;;;;12389745;28;20047;-82
2023/02/20 15:59:47;;;;;;;14.85;8.75;;;7.60;99.90;;;;;;12398825;28;20530;-85
2023/02/20 16:05:49;;;;;;;17.17;9.43;;;7.60;99.90;;;;;;12394162;28;20047;-83
2023/02/20 16:11:54;;;;;;;15.68;8.90;;;7.60;99.90;;;;;;12406203;28;20047;-82
2023/02/20 16:17:56;;;;;;;18.83;9.90;;;7.60;99.90;;;;;;12385652;28;20050;-83
2023/02/20 16:23:57;;;;;;;16.60;9.18;;;7.60;99.90;;;;;;12402981;28;20049;-83
2023/02/20 16:29:59;;;;;;;15.80;9.02;;;7.60;99.90;;;;;;12413693;28;20048;-82
2023/02/20 16:36:01;;;;;;;17.13;10.32;;;7.60;99.90;;;;;;12398402;28;20038;-83
2023/02/20 16:42:23;;;;;;;17.38;9.65;;;7.50;99.90;;;;;;12388753;28;20437;-82
2023/02/20 16:48:25;;;;;;;16.25;9.18;;;7.50;99.90;;;;;;12397984;28;20133;-82
2023/02/20 16:54:27;;;;;;;17.20;10.02;;;7.50;99.90;;;;;;12415367;28;20057;-82
2023/02/20 17:00:41;;;;;;;20.20;9.82;;;7.40;99.90;;;;;;12412725;28;20505;-82
2023/02/20 17:06:57;;;;;;;20.33;9.35;;;7.40;99.90;;;;;;12374952;28;20070;-81
2023/02/20 17:12:59;;;;;;;15.68;9.15;;;7.40;99.90;;;;;;12416807;28;20034;-81
2023/02/20 17:19:01;;;;;;;16.45;9.50;;;7.50;99.90;;;;;;12389531;28;20129;-82
2023/02/20 17:25:03;;;;;;;16.48;9.32;;;7.50;99.90;;;;;;12420795;28;20050;-82
2023/02/20 17:31:05;;;;;;;18.75;9.77;;;7.50;99.90;;;;;;12424893;28;20069;-82
2023/02/20 17:37:08;;;;;;;16.27;9.02;;;7.50;99.90;;;;;;12457029;28;20180;-82
2023/02/20 17:43:10;;;;;;;16.23;9.38;;;7.50;99.90;;;;;;12475868;28;20068;-82
2023/02/20 17:49:11;;;;;;;17.52;8.90;;;7.50;99.90;;;;;;12444177;28;20046;-82
2023/02/20 17:55:18;;;;;;;16.40;9.50;;;7.60;99.90;;;;;;12412888;28;20139;-83
2023/02/20 18:01:26;;;;;;;20.52;10.70;;;7.60;99.90;;;;;;12415628;28;20046;-82
2023/02/20 18:07:27;;;;;;;18.42;10.27;;;7.50;99.90;;;;;;12405299;28;20050;-82
2023/02/20 18:13:29;;;;;;;19.95;11.93;;;7.60;99.90;;;;;;12380158;28;20069;-83
2023/02/20 18:19:31;;;;;;;21.05;12.13;;;7.60;99.90;;;;;;12407203;28;20042;-82
2023/02/20 18:25:33;;;;;;;22.98;13.25;;;7.60;99.90;;;;;;12383745;28;20057;-82
2023/02/20 18:31:41;;;;;;;28.92;14.38;;;7.50;99.90;;;;;;12424377;28;20050;-81
2023/02/20 18:37:43;;;;;;;28.73;15.60;;;7.60;99.90;;;;;;12403642;28;20498;-82
2023/02/20 18:43:45;;;;;;;27.52;16.35;;;7.60;99.90;;;;;;12389277;28;20119;-83
2023/02/20 18:49:47;;;;;;;32.28;17.15;;;7.70;99.90;;;;;;12384388;28;20054;-82
2023/02/20 18:55:49;;;;;;;31.95;18.77;;;7.70;99.90;;;;;;12398599;28;20209;-82
2023/02/20 19:01:52;;;;;;;33.88;18.10;;;7.70;99.90;;;;;;12403891;28;20046;-82
2023/02/20 19:07:54;;;;;;;30.13;16.90;;;7.70;99.90;;;;;;12417008;28;20055;-82
2023/02/20 19:13:57;;;;;;;31.85;18.27;;;7.70;99.90;;;;;;12397200;28;20050;-81
2023/02/20 19:20:00;;;;;;;35.03;19.58;;;7.70;99.90;;;;;;12406260;28;20457;-82
2023/02/20 19:26:02;;;;;;;35.85;19.85;;;7.70;99.90;;;;;;12366963;28;20054;-82
2023/02/20 19:32:04;;;;;;;39.45;19.98;;;7.70;99.90;;;;;;12351566;28;20100;-82
2023/02/20 19:38:06;;;;;;;37.40;20.92;;;7.80;99.90;;;;;;12362966;28;20042;-81
2023/02/20 19:44:13;;;;;;;39.25;21.33;;;7.70;99.90;;;;;;12353702;28;20365;-82
2023/02/20 19:50:15;;;;;;;44.33;21.77;;;7.80;99.90;;;;;;12338312;28;20370;-82
2023/02/20 19:56:17;;;;;;;40.25;22.45;;;7.80;99.90;;;;;;12361696;28;20051;-82
2023/02/20 20:02:21;;;;;;;42.38;22.92;;;7.80;99.90;;;;;;12357703;28;20093;-82
2023/02/20 20:08:26;;;;;;;47.15;24.60;;;7.80;99.90;;;;;;12345736;28;20572;-83
2023/02/20 20:14:28;;;;;;;46.65;24.90;;;7.80;99.90;;;;;;12359996;28;21019;-82
2023/02/20 20:20:31;;;;;;;46.13;24.30;;;7.80;99.90;;;;;;12362389;28;20108;-82
2023/02/20 20:26:34;;;;;;;53.95;27.40;;;7.80;99.90;;;;;;12341983;28;20054;-82
2023/02/20 20:32:36;;;;;;;52.88;26.42;;;7.80;99.90;;;;;;12369174;28;20047;-82
2023/02/20 20:38:38;;;;;;;52.28;27.35;;;7.80;99.90;;;;;;12340266;28;20049;-83
2023/02/20 20:44:39;;;;;;;52.85;26.45;;;7.90;99.90;;;;;;12368899;28;20073;-83
2023/02/20 20:50:42;;;;;;;50.45;26.30;;;7.90;99.90;;;;;;12350239;28;20419;-82
2023/02/20 20:56:48;;;;;;;49.75;27.15;;;8.00;99.90;;;;;;12360452;28;20061;-82
2023/02/20 21:02:52;;;;;;;46.75;26.08;;;7.90;99.90;;;;;;12355809;28;20085;-82
2023/02/20 21:08:55;;;;;;;53.83;26.70;;;8.00;99.90;;;;;;12329950;28;20065;-82
2023/02/20 21:14:57;;;;;;;48.08;25.25;;;8.00;99.90;;;;;;12353046;28;20136;-82
2023/02/20 21:20:59;;;;;;;55.22;27.05;;;7.90;99.90;;;;;;12349078;28;20766;-81
2023/02/20 21:27:01;;;;;;;47.63;27.13;;;7.90;99.90;;;;;;12346995;28;20645;-82
2023/02/20 21:33:02;;;;;;;47.35;26.38;;;8.00;99.90;;;;;;12355018;28;20566;-82
2023/02/20 21:39:04;;;;;;;46.10;25.38;;;8.00;99.90;;;;;;12373421;28;20137;-82
2023/02/20 21:45:06;;;;;;;45.80;25.38;;;8.00;99.90;;;;;;12369972;28;20050;-82
2023/02/20 21:51:08;;;;;;;44.38;24.55;;;8.00;99.90;;;;;;12361523;28;20057;-82
2023/02/20 21:57:10;;;;;;;44.58;24.10;;;8.00;99.90;;;;;;12367187;28;20142;-82
